sensor_id;sensor_type;location;lat;lon;timestamp;pressure;altitude;pressure_sealevel;temperature;humidity
54924;BME280;40825;52.270;20.984;2023-06-19T00:02:03;100497.50;;;15.72;85.58
54924;BME280;40825;52.270;20.984;2023-06-19T00:04:53;100497.05;;;15.72;85.60
54924;BME280;40825;52.270;20.984;2023-06-19T00:11:14;100501.64;;;15.64;86.20
54924;BME280;40825;52.270;20.984;2023-06-19T00:14:05;100501.56;;;15.59;86.38
54924;BME280;40825;52.270;20.984;2023-06-19T00:17:30;100500.74;;;15.53;86.45
54924;BME280;40825;52.270;20.984;2023-06-19T00:20:43;100504.59;;;15.49;86.04
54924;BME280;40825;52.270;20.984;2023-06-19T00:24:02;100511.74;;;15.48;85.84
54924;BME280;40825;52.270;20.984;2023-06-19T00:30:08;100514.56;;;15.46;86.32
54924;BME280;40825;52.270;20.984;2023-06-19T00:36:31;100507.78;;;15.34;86.81
54924;BME280;40825;52.270;20.984;2023-06-19T00:38:57;100509.42;;;15.30;86.18
54924;BME280;40825;52.270;20.984;2023-06-19T00:41:43;100512.81;;;15.31;86.18
54924;BME280;40825;52.270;20.984;2023-06-19T00:44:54;100520.04;;;15.32;86.08
54924;BME280;40825;52.270;20.984;2023-06-19T00:47:45;100519.55;;;15.32;86.13
54924;BME280;40825;52.270;20.984;2023-06-19T00:50:35;100520.39;;;15.31;86.04
54924;BME280;40825;52.270;20.984;2023-06-19T01:15:59;100510.25;;;15.10;87.17
54924;BME280;40825;52.270;20.984;2023-06-19T01:19:09;100507.83;;;15.08;87.23
54924;BME280;40825;52.270;20.984;2023-06-19T01:25:57;100507.05;;;15.11;86.79
54924;BME280;40825;52.270;20.984;2023-06-19T01:28:22;100508.67;;;15.11;87.10
54924;BME280;40825;52.270;20.984;2023-06-19T01:34:41;100504.86;;;15.05;87.21
54924;BME280;40825;52.270;20.984;2023-06-19T01:45:29;100506.23;;;14.95;87.51
54924;BME280;40825;52.270;20.984;2023-06-19T01:55:36;100511.09;;;14.96;87.30
54924;BME280;40825;52.270;20.984;2023-06-19T02:04:32;100511.14;;;14.90;87.36
54924;BME280;40825;52.270;20.984;2023-06-19T02:07:04;100506.69;;;14.88;87.37
54924;BME280;40825;52.270;20.984;2023-06-19T02:09:31;100505.30;;;14.85;87.94
54924;BME280;40825;52.270;20.984;2023-06-19T02:12:53;100502.77;;;14.78;88.08
54924;BME280;40825;52.270;20.984;2023-06-19T02:15:22;100504.86;;;14.73;88.00
54924;BME280;40825;52.270;20.984;2023-06-19T02:18:09;100509.03;;;14.73;87.90
54924;BME280;40825;52.270;20.984;2023-06-19T02:21:31;100511.69;;;14.73;87.89
54924;BME280;40825;52.270;20.984;2023-06-19T02:24:51;100516.06;;;14.72;88.36
54924;BME280;40825;52.270;20.984;2023-06-19T02:45:39;100521.01;;;14.60;88.51
54924;BME280;40825;52.270;20.984;2023-06-19T02:48:07;100521.33;;;14.57;88.29
54924;BME280;40825;52.270;20.984;2023-06-19T02:54:33;100516.15;;;14.53;88.86
54924;BME280;40825;52.270;20.984;2023-06-19T02:57:35;100517.41;;;14.51;90.90
54924;BME280;40825;52.270;20.984;2023-06-19T03:04:06;100521.20;;;14.42;89.63
54924;BME280;40825;52.270;20.984;2023-06-19T03:06:49;100525.94;;;14.46;89.60
54924;BME280;40825;52.270;20.984;2023-06-19T03:09:16;100528.90;;;14.49;89.51
54924;BME280;40825;52.270;20.984;2023-06-19T03:12:07;100528.77;;;14.50;89.44
54924;BME280;40825;52.270;20.984;2023-06-19T03:15:16;100530.30;;;14.52;89.59
54924;BME280;40825;52.270;20.984;2023-06-19T03:21:19;100536.15;;;14.53;90.89
54924;BME280;40825;52.270;20.984;2023-06-19T03:24:16;100540.80;;;14.52;90.60
54924;BME280;40825;52.270;20.984;2023-06-19T03:31:10;100536.86;;;14.62;91.89
54924;BME280;40825;52.270;20.984;2023-06-19T03:37:37;100532.73;;;14.67;91.08
54924;BME280;40825;52.270;20.984;2023-06-19T03:40:15;100531.98;;;14.76;90.75
54924;BME280;40825;52.270;20.984;2023-06-19T03:43:04;100531.28;;;14.89;90.84
54924;BME280;40825;52.270;20.984;2023-06-19T03:45:38;100533.74;;;15.03;90.83
54924;BME280;40825;52.270;20.984;2023-06-19T03:54:17;100535.29;;;15.26;91.21
54924;BME280;40825;52.270;20.984;2023-06-19T04:00:41;100534.05;;;15.67;90.80
54924;BME280;40825;52.270;20.984;2023-06-19T04:06:21;100530.86;;;15.74;90.58
54924;BME280;40825;52.270;20.984;2023-06-19T04:09:45;100530.67;;;15.80;90.64
54924;BME280;40825;52.270;20.984;2023-06-19T04:12:11;100528.23;;;15.84;90.89
54924;BME280;40825;52.270;20.984;2023-06-19T04:14:37;100528.85;;;15.88;90.60
54924;BME280;40825;52.270;20.984;2023-06-19T04:17:06;100532.98;;;15.91;90.65
54924;BME280;40825;52.270;20.984;2023-06-19T04:19:31;100531.81;;;15.93;90.34
54924;BME280;40825;52.270;20.984;2023-06-19T04:21:57;100531.83;;;16.00;90.27
54924;BME280;40825;52.270;20.984;2023-06-19T04:24:23;100537.13;;;16.10;90.08
54924;BME280;40825;52.270;20.984;2023-06-19T04:26:49;100538.41;;;16.21;89.97
54924;BME280;40825;52.270;20.984;2023-06-19T04:29:14;100535.64;;;16.35;89.77
54924;BME280;40825;52.270;20.984;2023-06-19T04:31:45;100533.80;;;16.46;89.64
54924;BME280;40825;52.270;20.984;2023-06-19T04:34:25;100537.27;;;16.53;89.26
54924;BME280;40825;52.270;20.984;2023-06-19T04:36:51;100538.44;;;16.53;89.05
54924;BME280;40825;52.270;20.984;2023-06-19T04:39:17;100535.23;;;16.70;89.21
54924;BME280;40825;52.270;20.984;2023-06-19T04:41:43;100534.65;;;17.54;88.63
54924;BME280;40825;52.270;20.984;2023-06-19T04:44:12;100531.19;;;18.10;86.85
54924;BME280;40825;52.270;20.984;2023-06-19T04:46:38;100533.15;;;18.50;85.94
54924;BME280;40825;52.270;20.984;2023-06-19T04:49:05;100535.39;;;19.35;85.35
54924;BME280;40825;52.270;20.984;2023-06-19T04:51:31;100535.73;;;21.34;80.04
54924;BME280;40825;52.270;20.984;2023-06-19T04:54:01;100534.62;;;23.57;75.79
54924;BME280;40825;52.270;20.984;2023-06-19T04:56:27;100533.31;;;25.33;65.78
54924;BME280;40825;52.270;20.984;2023-06-19T04:58:54;100538.44;;;26.84;62.80
54924;BME280;40825;52.270;20.984;2023-06-19T05:01:22;100541.73;;;28.12;61.01
54924;BME280;40825;52.270;20.984;2023-06-19T05:03:54;100539.73;;;29.01;50.82
54924;BME280;40825;52.270;20.984;2023-06-19T05:06:24;100544.71;;;30.07;54.59
54924;BME280;40825;52.270;20.984;2023-06-19T05:08:59;100541.25;;;30.96;46.17
54924;BME280;40825;52.270;20.984;2023-06-19T05:11:27;100543.59;;;31.50;42.40
54924;BME280;40825;52.270;20.984;2023-06-19T05:13:53;100543.67;;;32.21;49.58
54924;BME280;40825;52.270;20.984;2023-06-19T05:16:18;100541.06;;;32.84;46.71
54924;BME280;40825;52.270;20.984;2023-06-19T05:18:45;100542.27;;;33.32;44.25
54924;BME280;40825;52.270;20.984;2023-06-19T05:21:10;100540.95;;;33.07;43.63
54924;BME280;40825;52.270;20.984;2023-06-19T05:23:38;100546.95;;;31.69;44.13
54924;BME280;40825;52.270;20.984;2023-06-19T05:26:06;100546.40;;;30.15;43.09
54924;BME280;40825;52.270;20.984;2023-06-19T05:28:32;100548.48;;;28.85;46.43
54924;BME280;40825;52.270;20.984;2023-06-19T05:30:58;100552.48;;;27.91;48.55
54924;BME280;40825;52.270;20.984;2023-06-19T05:33:24;100556.96;;;27.14;50.35
54924;BME280;40825;52.270;20.984;2023-06-19T05:36:01;100560.67;;;26.38;50.35
54924;BME280;40825;52.270;20.984;2023-06-19T05:38:32;100565.38;;;26.51;49.44
54924;BME280;40825;52.270;20.984;2023-06-19T05:40:59;100561.06;;;27.82;45.61
54924;BME280;40825;52.270;20.984;2023-06-19T05:43:26;100565.12;;;28.64;43.88
54924;BME280;40825;52.270;20.984;2023-06-19T05:45:53;100565.69;;;29.56;43.21
54924;BME280;40825;52.270;20.984;2023-06-19T05:48:32;100566.77;;;30.37;41.74
54924;BME280;40825;52.270;20.984;2023-06-19T05:50:58;100574.21;;;30.99;39.61
54924;BME280;40825;52.270;20.984;2023-06-19T05:53:24;100573.21;;;31.68;40.54
54924;BME280;40825;52.270;20.984;2023-06-19T05:55:50;100578.86;;;32.18;41.15
54924;BME280;40825;52.270;20.984;2023-06-19T05:58:16;100580.97;;;32.44;40.29
54924;BME280;40825;52.270;20.984;2023-06-19T06:00:45;100583.30;;;32.62;37.53
54924;BME280;40825;52.270;20.984;2023-06-19T06:03:12;100587.58;;;32.48;34.60
54924;BME280;40825;52.270;20.984;2023-06-19T06:05:38;100598.27;;;32.06;34.51
54924;BME280;40825;52.270;20.984;2023-06-19T06:08:04;100597.90;;;32.19;35.20
54924;BME280;40825;52.270;20.984;2023-06-19T06:10:32;100597.11;;;32.79;37.27
54924;BME280;40825;52.270;20.984;2023-06-19T06:12:58;100596.13;;;33.17;35.71
54924;BME280;40825;52.270;20.984;2023-06-19T06:15:23;100601.96;;;33.28;33.99
54924;BME280;40825;52.270;20.984;2023-06-19T06:17:49;100607.20;;;33.40;34.13
54924;BME280;40825;52.270;20.984;2023-06-19T06:20:14;100608.83;;;33.57;33.94
54924;BME280;40825;52.270;20.984;2023-06-19T06:22:41;100612.11;;;33.85;34.45
54924;BME280;40825;52.270;20.984;2023-06-19T06:25:06;100614.19;;;34.02;33.25
54924;BME280;40825;52.270;20.984;2023-06-19T06:27:33;100621.64;;;34.33;33.97
54924;BME280;40825;52.270;20.984;2023-06-19T06:29:59;100625.19;;;34.48;33.04
54924;BME280;40825;52.270;20.984;2023-06-19T06:32:25;100625.31;;;34.71;32.61
54924;BME280;40825;52.270;20.984;2023-06-19T06:34:52;100627.57;;;34.72;31.12
54924;BME280;40825;52.270;20.984;2023-06-19T06:37:18;100629.61;;;34.45;30.81
54924;BME280;40825;52.270;20.984;2023-06-19T06:39:48;100622.92;;;34.57;32.14
54924;BME280;40825;52.270;20.984;2023-06-19T06:42:17;100622.22;;;34.62;30.22
54924;BME280;40825;52.270;20.984;2023-06-19T06:44:44;100620.34;;;34.48;30.39
54924;BME280;40825;52.270;20.984;2023-06-19T06:47:09;100621.63;;;34.53;30.58
54924;BME280;40825;52.270;20.984;2023-06-19T06:49:35;100627.57;;;34.80;30.58
54924;BME280;40825;52.270;20.984;2023-06-19T06:52:05;100629.64;;;34.51;29.66
54924;BME280;40825;52.270;20.984;2023-06-19T06:54:31;100624.84;;;34.57;30.96
54924;BME280;40825;52.270;20.984;2023-06-19T06:56:58;100625.08;;;34.98;30.61
54924;BME280;40825;52.270;20.984;2023-06-19T06:59:25;100622.93;;;35.30;30.57
54924;BME280;40825;52.270;20.984;2023-06-19T07:01:53;100619.89;;;35.69;30.28
54924;BME280;40825;52.270;20.984;2023-06-19T07:04:20;100623.77;;;35.71;28.40
54924;BME280;40825;52.270;20.984;2023-06-19T07:06:45;100620.34;;;35.52;28.07
54924;BME280;40825;52.270;20.984;2023-06-19T07:09:11;100616.38;;;35.60;28.85
54924;BME280;40825;52.270;20.984;2023-06-19T07:11:36;100618.70;;;36.03;29.60
54924;BME280;40825;52.270;20.984;2023-06-19T07:14:02;100611.73;;;36.54;29.11
54924;BME280;40825;52.270;20.984;2023-06-19T07:16:27;100612.06;;;36.55;28.41
54924;BME280;40825;52.270;20.984;2023-06-19T07:18:53;100608.39;;;36.73;28.11
54924;BME280;40825;52.270;20.984;2023-06-19T07:21:19;100610.48;;;36.83;27.53
54924;BME280;40825;52.270;20.984;2023-06-19T07:23:45;100611.70;;;36.91;27.01
54924;BME280;40825;52.270;20.984;2023-06-19T07:26:12;100609.95;;;37.25;28.14
54924;BME280;40825;52.270;20.984;2023-06-19T07:28:38;100607.36;;;37.30;26.32
54924;BME280;40825;52.270;20.984;2023-06-19T07:31:03;100608.08;;;37.52;27.05
54924;BME280;40825;52.270;20.984;2023-06-19T07:33:29;100609.92;;;37.63;26.00
54924;BME280;40825;52.270;20.984;2023-06-19T07:35:55;100608.69;;;37.85;26.72
54924;BME280;40825;52.270;20.984;2023-06-19T07:38:21;100607.36;;;38.02;25.85
54924;BME280;40825;52.270;20.984;2023-06-19T07:40:47;100606.92;;;37.99;25.34
54924;BME280;40825;52.270;20.984;2023-06-19T07:43:12;100604.65;;;38.12;25.46
54924;BME280;40825;52.270;20.984;2023-06-19T07:45:38;100605.66;;;38.26;26.46
54924;BME280;40825;52.270;20.984;2023-06-19T07:48:03;100602.42;;;38.52;26.21
54924;BME280;40825;52.270;20.984;2023-06-19T07:50:29;100602.14;;;38.67;25.92
54924;BME280;40825;52.270;20.984;2023-06-19T07:52:54;100608.40;;;38.85;25.99
54924;BME280;40825;52.270;20.984;2023-06-19T07:55:20;100611.20;;;38.67;25.70
54924;BME280;40825;52.270;20.984;2023-06-19T07:57:45;100608.28;;;38.21;25.21
54924;BME280;40825;52.270;20.984;2023-06-19T08:00:11;100616.21;;;37.82;25.01
54924;BME280;40825;52.270;20.984;2023-06-19T08:02:39;100614.56;;;37.51;25.63
54924;BME280;40825;52.270;20.984;2023-06-19T08:05:05;100612.93;;;37.62;26.41
54924;BME280;40825;52.270;20.984;2023-06-19T08:07:32;100615.79;;;37.32;26.78
54924;BME280;40825;52.270;20.984;2023-06-19T08:09:57;100615.92;;;35.85;27.95
54924;BME280;40825;52.270;20.984;2023-06-19T08:12:23;100613.55;;;34.86;28.70
54924;BME280;40825;52.270;20.984;2023-06-19T08:14:48;100613.61;;;34.68;28.21
54924;BME280;40825;52.270;20.984;2023-06-19T08:17:14;100616.92;;;35.01;27.75
54924;BME280;40825;52.270;20.984;2023-06-19T08:19:39;100614.86;;;34.82;28.09
54924;BME280;40825;52.270;20.984;2023-06-19T08:22:05;100613.69;;;34.50;27.82
54924;BME280;40825;52.270;20.984;2023-06-19T08:24:31;100606.09;;;34.35;27.84
54924;BME280;40825;52.270;20.984;2023-06-19T08:26:56;100604.17;;;34.65;27.68
54924;BME280;40825;52.270;20.984;2023-06-19T08:29:22;100606.22;;;34.91;27.74
54924;BME280;40825;52.270;20.984;2023-06-19T08:31:48;100604.44;;;35.20;28.05
54924;BME280;40825;52.270;20.984;2023-06-19T08:34:13;100609.87;;;35.55;27.95
54924;BME280;40825;52.270;20.984;2023-06-19T08:36:39;100612.45;;;35.85;28.16
54924;BME280;40825;52.270;20.984;2023-06-19T08:39:08;100614.64;;;35.86;27.41
54924;BME280;40825;52.270;20.984;2023-06-19T08:41:37;100615.11;;;35.68;27.24
54924;BME280;40825;52.270;20.984;2023-06-19T08:44:04;100611.52;;;35.07;27.03
54924;BME280;40825;52.270;20.984;2023-06-19T08:46:30;100608.15;;;34.97;27.76
54924;BME280;40825;52.270;20.984;2023-06-19T08:48:55;100608.40;;;34.78;28.06
54924;BME280;40825;52.270;20.984;2023-06-19T08:51:21;100608.34;;;34.81;28.03
54924;BME280;40825;52.270;20.984;2023-06-19T08:53:55;100609.98;;;34.75;27.91
54924;BME280;40825;52.270;20.984;2023-06-19T08:56:20;100611.09;;;34.56;28.16
54924;BME280;40825;52.270;20.984;2023-06-19T08:58:46;100612.77;;;34.61;28.72
54924;BME280;40825;52.270;20.984;2023-06-19T09:01:16;100612.23;;;34.56;28.80
54924;BME280;40825;52.270;20.984;2023-06-19T09:03:42;100610.07;;;34.67;29.25
54924;BME280;40825;52.270;20.984;2023-06-19T09:06:09;100611.55;;;34.85;29.05
54924;BME280;40825;52.270;20.984;2023-06-19T09:08:35;100608.52;;;34.90;28.64
54924;BME280;40825;52.270;20.984;2023-06-19T09:11:02;100605.64;;;34.54;28.48
54924;BME280;40825;52.270;20.984;2023-06-19T09:13:29;100603.80;;;34.30;28.54
54924;BME280;40825;52.270;20.984;2023-06-19T09:16:03;100605.52;;;34.14;28.86
54924;BME280;40825;52.270;20.984;2023-06-19T09:18:41;100605.63;;;34.14;28.94
54924;BME280;40825;52.270;20.984;2023-06-19T09:21:15;100603.96;;;33.93;28.35
54924;BME280;40825;52.270;20.984;2023-06-19T09:23:40;100603.64;;;33.77;29.05
54924;BME280;40825;52.270;20.984;2023-06-19T09:26:06;100603.14;;;33.79;29.05
54924;BME280;40825;52.270;20.984;2023-06-19T09:28:31;100605.65;;;33.83;29.23
54924;BME280;40825;52.270;20.984;2023-06-19T09:31:03;100603.17;;;33.63;28.34
54924;BME280;40825;52.270;20.984;2023-06-19T09:33:32;100601.81;;;33.70;29.02
54924;BME280;40825;52.270;20.984;2023-06-19T09:35:59;100602.23;;;33.95;29.16
54924;BME280;40825;52.270;20.984;2023-06-19T09:38:26;100605.66;;;33.81;28.89
54924;BME280;40825;52.270;20.984;2023-06-19T09:40:53;100602.74;;;33.48;29.25
54924;BME280;40825;52.270;20.984;2023-06-19T09:43:30;100600.75;;;33.45;29.15
54924;BME280;40825;52.270;20.984;2023-06-19T09:45:58;100598.99;;;33.41;29.17
54924;BME280;40825;52.270;20.984;2023-06-19T09:48:29;100602.17;;;33.20;29.28
54924;BME280;40825;52.270;20.984;2023-06-19T09:51:02;100603.48;;;32.97;29.59
54924;BME280;40825;52.270;20.984;2023-06-19T09:53:29;100606.30;;;32.71;29.50
54924;BME280;40825;52.270;20.984;2023-06-19T09:55:55;100606.88;;;32.43;29.51
54924;BME280;40825;52.270;20.984;2023-06-19T09:58:21;100605.33;;;31.86;29.73
54924;BME280;40825;52.270;20.984;2023-06-19T10:00:48;100606.59;;;31.33;30.02
54924;BME280;40825;52.270;20.984;2023-06-19T10:03:16;100601.91;;;30.98;30.70
54924;BME280;40825;52.270;20.984;2023-06-19T10:05:44;100599.69;;;30.85;31.48
54924;BME280;40825;52.270;20.984;2023-06-19T10:08:10;100600.84;;;30.72;32.00
54924;BME280;40825;52.270;20.984;2023-06-19T10:10:36;100595.93;;;30.45;31.90
54924;BME280;40825;52.270;20.984;2023-06-19T10:13:13;100595.44;;;30.22;32.19
54924;BME280;40825;52.270;20.984;2023-06-19T10:15:43;100595.23;;;30.10;32.27
54924;BME280;40825;52.270;20.984;2023-06-19T10:18:17;100594.40;;;29.83;32.17
54924;BME280;40825;52.270;20.984;2023-06-19T10:20:45;100591.48;;;29.54;32.91
54924;BME280;40825;52.270;20.984;2023-06-19T10:23:19;100589.58;;;29.11;33.58
54924;BME280;40825;52.270;20.984;2023-06-19T10:28:24;100590.04;;;28.59;34.23
54924;BME280;40825;52.270;20.984;2023-06-19T10:31:04;100590.45;;;28.39;33.84
54924;BME280;40825;52.270;20.984;2023-06-19T10:33:35;100587.54;;;28.15;34.23
54924;BME280;40825;52.270;20.984;2023-06-19T10:36:23;100582.38;;;28.06;34.39
54924;BME280;40825;52.270;20.984;2023-06-19T10:38:51;100580.52;;;28.06;35.20
54924;BME280;40825;52.270;20.984;2023-06-19T10:41:21;100579.21;;;27.98;35.38
54924;BME280;40825;52.270;20.984;2023-06-19T10:43:55;100577.28;;;27.75;35.82
54924;BME280;40825;52.270;20.984;2023-06-19T10:46:21;100577.58;;;27.57;36.18
54924;BME280;40825;52.270;20.984;2023-06-19T10:48:47;100575.15;;;27.39;35.98
54924;BME280;40825;52.270;20.984;2023-06-19T10:51:18;100575.64;;;27.21;36.15
54924;BME280;40825;52.270;20.984;2023-06-19T10:53:44;100575.98;;;27.01;36.58
54924;BME280;40825;52.270;20.984;2023-06-19T10:56:09;100570.58;;;26.73;37.29
54924;BME280;40825;52.270;20.984;2023-06-19T10:58:35;100572.70;;;26.73;38.07
54924;BME280;40825;52.270;20.984;2023-06-19T11:01:00;100571.27;;;26.81;37.96
54924;BME280;40825;52.270;20.984;2023-06-19T11:03:26;100573.74;;;26.89;37.89
54924;BME280;40825;52.270;20.984;2023-06-19T11:05:52;100570.48;;;26.99;38.20
54924;BME280;40825;52.270;20.984;2023-06-19T11:08:19;100566.59;;;27.10;37.85
54924;BME280;40825;52.270;20.984;2023-06-19T11:10:44;100566.85;;;27.20;38.16
54924;BME280;40825;52.270;20.984;2023-06-19T11:13:14;100566.02;;;27.27;38.17
54924;BME280;40825;52.270;20.984;2023-06-19T11:15:41;100562.90;;;27.31;38.66
54924;BME280;40825;52.270;20.984;2023-06-19T11:18:07;100562.89;;;27.37;38.40
54924;BME280;40825;52.270;20.984;2023-06-19T11:20:50;100560.79;;;27.41;38.37
54924;BME280;40825;52.270;20.984;2023-06-19T11:23:17;100558.07;;;27.50;38.31
54924;BME280;40825;52.270;20.984;2023-06-19T11:25:43;100558.73;;;27.54;37.71
54924;BME280;40825;52.270;20.984;2023-06-19T11:28:16;100557.39;;;27.38;38.32
54924;BME280;40825;52.270;20.984;2023-06-19T11:30:58;100558.96;;;27.33;38.56
54924;BME280;40825;52.270;20.984;2023-06-19T11:33:24;100552.98;;;27.36;38.76
54924;BME280;40825;52.270;20.984;2023-06-19T11:35:54;100547.27;;;27.46;38.73
54924;BME280;40825;52.270;20.984;2023-06-19T11:38:25;100545.33;;;27.55;38.69
54924;BME280;40825;52.270;20.984;2023-06-19T11:40:52;100543.52;;;27.61;38.50
54924;BME280;40825;52.270;20.984;2023-06-19T11:43:28;100544.27;;;27.65;37.97
54924;BME280;40825;52.270;20.984;2023-06-19T11:46:07;100543.44;;;27.60;38.10
54924;BME280;40825;52.270;20.984;2023-06-19T11:48:36;100543.16;;;27.46;38.21
54924;BME280;40825;52.270;20.984;2023-06-19T11:51:02;100543.08;;;27.41;38.70
54924;BME280;40825;52.270;20.984;2023-06-19T11:53:28;100543.03;;;27.38;39.09
54924;BME280;40825;52.270;20.984;2023-06-19T11:55:54;100543.99;;;27.14;38.23
54924;BME280;40825;52.270;20.984;2023-06-19T11:58:19;100539.94;;;26.97;38.84
54924;BME280;40825;52.270;20.984;2023-06-19T12:00:46;100537.48;;;26.89;38.90
54924;BME280;40825;52.270;20.984;2023-06-19T12:03:12;100535.13;;;26.78;39.43
54924;BME280;40825;52.270;20.984;2023-06-19T12:05:38;100536.27;;;26.64;39.78
54924;BME280;40825;52.270;20.984;2023-06-19T12:08:03;100541.77;;;26.49;39.92
54924;BME280;40825;52.270;20.984;2023-06-19T12:10:33;100542.21;;;26.37;39.82
54924;BME280;40825;52.270;20.984;2023-06-19T12:12:59;100540.02;;;26.20;40.34
54924;BME280;40825;52.270;20.984;2023-06-19T12:15:25;100540.86;;;26.07;40.64
54924;BME280;40825;52.270;20.984;2023-06-19T12:17:52;100540.42;;;25.99;40.65
54924;BME280;40825;52.270;20.984;2023-06-19T12:20:18;100540.59;;;25.89;40.56
54924;BME280;40825;52.270;20.984;2023-06-19T12:22:44;100541.02;;;25.75;40.57
54924;BME280;40825;52.270;20.984;2023-06-19T12:25:09;100540.64;;;25.60;40.88
54924;BME280;40825;52.270;20.984;2023-06-19T12:27:37;100538.48;;;25.50;41.47
54924;BME280;40825;52.270;20.984;2023-06-19T12:30:03;100541.56;;;25.45;41.53
54924;BME280;40825;52.270;20.984;2023-06-19T12:32:29;100533.92;;;25.39;41.61
54924;BME280;40825;52.270;20.984;2023-06-19T12:34:54;100533.10;;;25.34;41.60
54924;BME280;40825;52.270;20.984;2023-06-19T12:37:20;100534.63;;;25.27;42.13
54924;BME280;40825;52.270;20.984;2023-06-19T12:39:47;100533.91;;;25.22;42.25
54924;BME280;40825;52.270;20.984;2023-06-19T12:42:12;100530.71;;;25.19;42.64
54924;BME280;40825;52.270;20.984;2023-06-19T12:44:42;100533.20;;;25.16;42.36
54924;BME280;40825;52.270;20.984;2023-06-19T12:47:10;100531.58;;;25.15;42.49
54924;BME280;40825;52.270;20.984;2023-06-19T12:49:36;100533.60;;;25.13;42.70
54924;BME280;40825;52.270;20.984;2023-06-19T12:52:02;100527.31;;;25.16;42.93
54924;BME280;40825;52.270;20.984;2023-06-19T12:54:27;100523.13;;;25.18;42.94
54924;BME280;40825;52.270;20.984;2023-06-19T12:56:53;100525.23;;;25.22;42.90
54924;BME280;40825;52.270;20.984;2023-06-19T12:59:19;100521.84;;;25.27;42.90
54924;BME280;40825;52.270;20.984;2023-06-19T13:01:45;100520.01;;;25.35;42.86
54924;BME280;40825;52.270;20.984;2023-06-19T13:04:12;100516.38;;;25.45;43.02
54924;BME280;40825;52.270;20.984;2023-06-19T13:06:38;100517.59;;;25.51;42.70
54924;BME280;40825;52.270;20.984;2023-06-19T13:09:04;100513.24;;;25.55;42.64
54924;BME280;40825;52.270;20.984;2023-06-19T13:11:31;100510.67;;;25.54;42.72
54924;BME280;40825;52.270;20.984;2023-06-19T13:13:56;100509.08;;;25.56;42.74
54924;BME280;40825;52.270;20.984;2023-06-19T13:16:22;100506.94;;;25.61;42.60
54924;BME280;40825;52.270;20.984;2023-06-19T13:18:51;100504.64;;;25.62;42.21
54924;BME280;40825;52.270;20.984;2023-06-19T13:21:16;100500.80;;;25.58;42.15
54924;BME280;40825;52.270;20.984;2023-06-19T13:23:42;100499.70;;;25.54;42.10
54924;BME280;40825;52.270;20.984;2023-06-19T13:26:07;100497.19;;;25.53;42.46
54924;BME280;40825;52.270;20.984;2023-06-19T13:28:33;100492.02;;;25.56;42.10
54924;BME280;40825;52.270;20.984;2023-06-19T13:30:58;100489.37;;;25.59;42.10
54924;BME280;40825;52.270;20.984;2023-06-19T13:33:25;100488.17;;;25.58;42.12
54924;BME280;40825;52.270;20.984;2023-06-19T13:35:51;100488.14;;;25.61;41.96
54924;BME280;40825;52.270;20.984;2023-06-19T13:38:17;100484.71;;;25.65;42.03
54924;BME280;40825;52.270;20.984;2023-06-19T13:40:42;100485.79;;;25.71;41.91
54924;BME280;40825;52.270;20.984;2023-06-19T13:43:08;100486.85;;;25.73;41.53
54924;BME280;40825;52.270;20.984;2023-06-19T13:45:34;100488.64;;;25.74;41.76
54924;BME280;40825;52.270;20.984;2023-06-19T13:48:00;100488.70;;;25.73;41.51
54924;BME280;40825;52.270;20.984;2023-06-19T13:50:27;100484.69;;;25.75;41.61
54924;BME280;40825;52.270;20.984;2023-06-19T13:52:52;100482.11;;;25.80;41.52
54924;BME280;40825;52.270;20.984;2023-06-19T13:55:18;100477.52;;;25.86;41.90
54924;BME280;40825;52.270;20.984;2023-06-19T13:57:44;100477.30;;;25.90;41.93
54924;BME280;40825;52.270;20.984;2023-06-19T14:00:11;100479.77;;;25.93;41.93
54924;BME280;40825;52.270;20.984;2023-06-19T14:02:37;100473.23;;;25.95;41.44
54924;BME280;40825;52.270;20.984;2023-06-19T14:05:05;100471.08;;;25.97;41.28
54924;BME280;40825;52.270;20.984;2023-06-19T14:07:32;100469.95;;;25.99;41.35
54924;BME280;40825;52.270;20.984;2023-06-19T14:09:57;100464.88;;;26.02;41.36
54924;BME280;40825;52.270;20.984;2023-06-19T14:12:23;100467.83;;;26.04;41.46
54924;BME280;40825;52.270;20.984;2023-06-19T14:14:48;100470.09;;;26.05;41.37
54924;BME280;40825;52.270;20.984;2023-06-19T14:17:14;100473.96;;;26.06;40.69
54924;BME280;40825;52.270;20.984;2023-06-19T14:19:39;100469.81;;;26.02;40.70
54924;BME280;40825;52.270;20.984;2023-06-19T14:22:05;100471.11;;;25.98;41.21
54924;BME280;40825;52.270;20.984;2023-06-19T14:24:30;100469.11;;;26.01;41.20
54924;BME280;40825;52.270;20.984;2023-06-19T14:26:56;100469.10;;;26.02;41.28
54924;BME280;40825;52.270;20.984;2023-06-19T14:29:21;100470.63;;;25.99;41.33
54924;BME280;40825;52.270;20.984;2023-06-19T14:31:47;100464.85;;;25.92;41.20
54924;BME280;40825;52.270;20.984;2023-06-19T14:34:13;100463.55;;;25.82;40.69
54924;BME280;40825;52.270;20.984;2023-06-19T14:36:38;100460.73;;;25.76;40.89
54924;BME280;40825;52.270;20.984;2023-06-19T14:39:04;100459.96;;;25.75;41.25
54924;BME280;40825;52.270;20.984;2023-06-19T14:41:29;100457.34;;;25.71;41.17
54924;BME280;40825;52.270;20.984;2023-06-19T14:43:55;100455.01;;;25.66;40.74
54924;BME280;40825;52.270;20.984;2023-06-19T14:46:20;100449.14;;;25.63;40.53
54924;BME280;40825;52.270;20.984;2023-06-19T14:48:46;100453.04;;;25.61;40.52
54924;BME280;40825;52.270;20.984;2023-06-19T14:51:12;100452.88;;;25.65;40.84
54924;BME280;40825;52.270;20.984;2023-06-19T14:53:37;100450.92;;;25.78;41.09